Castro Valley, California
Current Conditions -  °F | °C
As of 11:54 AM on Saturday 20 Dec 2014 (Local Time) from KHWD Reporting Station
Overcast Overcast  
Wind Chill: 61°   Ceiling: 7000
Heat Index: 61°   Visibility: 10mi
Dew Point: 56°   Wind: 5mph
Humidity: 83%   Direction: 220°SW
Pressure: 30.21"   Gusts: NA
Location:  37.69°N, 122.08°W
Report Text: KHWD 201954Z 22004KT 10SM FEW008 OVC070 16/13 A3021 RMK AO2 SLP239 T01610133 $
Loading
Personal Weather Stations






























Interactive Weather Map New forecast layout! Learn more

10-Day Weather Forecast

Advertisements
Track Severe Weather on mobile